Time;durP1;ratioP1;P1;durP2;ratioP2;P2;SDS_P1;SDS_P2;PMS_P1;PMS_P2;Temp;Humidity;BMP_temperature;BMP_pressure;BME280_temperature;BME280_humidity;BME280_pressure;Samples;Min_cycle;Max_cycle;Signal;HPM_P1;HPM_P2
2022/05/31 00:00:38;;;;;;;0.30;0.30;;;;;;;14.05;62.89;99575.53;4878894;29;20053;-88
2022/05/31 00:03:11;;;;;;;0.30;0.30;;;;;;;14.08;62.55;99569.63;4878621;29;20053;-89
2022/05/31 00:05:38;;;;;;;0.30;0.30;;;;;;;14.05;62.56;99580.97;4877364;29;20057;-89
2022/05/31 00:08:06;;;;;;;0.30;0.30;;;;;;;14.02;62.73;99574.13;4879176;29;20120;-89
2022/05/31 00:10:33;;;;;;;0.30;0.30;;;;;;;14.05;61.75;99581.78;4878658;29;20116;-89
2022/05/31 00:13:01;;;;;;;0.30;0.30;;;;;;;14.10;62.65;99589.16;4879073;29;20505;-89
2022/05/31 00:15:28;;;;;;;0.30;0.30;;;;;;;14.11;61.77;99582.66;4877355;29;20574;-88
2022/05/31 00:17:55;;;;;;;0.30;0.30;;;;;;;14.11;61.47;99579.16;4878710;29;20057;-88
2022/05/31 00:20:23;;;;;;;0.30;0.30;;;;;;;14.14;62.01;99586.78;4878706;29;20161;-89
2022/05/31 00:22:51;;;;;;;0.30;0.30;;;;;;;14.13;62.10;99585.97;4878574;29;20057;-88
2022/05/31 00:25:18;;;;;;;0.30;0.30;;;;;;;14.08;62.18;99583.19;4877351;29;20053;-89
2022/05/31 00:27:45;;;;;;;0.30;0.30;;;;;;;14.09;61.90;99591.06;4877448;29;20080;-89
2022/05/31 00:30:13;;;;;;;0.30;0.30;;;;;;;14.11;62.36;99592.72;4879379;29;20053;-88
2022/05/31 00:32:45;;;;;;;0.30;0.30;;;;;;;14.02;62.04;99581.47;4877870;29;20057;-89
2022/05/31 00:35:22;;;;;;;0.30;0.30;;;;;;;14.00;61.85;99580.91;4876922;29;20053;-89
2022/05/31 00:37:49;;;;;;;0.30;0.30;;;;;;;14.07;62.02;99581.53;4879619;29;20057;-89
2022/05/31 00:40:19;;;;;;;0.30;0.30;;;;;;;14.02;62.55;99592.31;4895550;29;20505;-89
2022/05/31 00:42:55;;;;;;;0.30;0.30;;;;;;;13.96;62.66;99582.50;4896832;29;20060;-87
2022/05/31 00:45:26;;;;;;;0.30;0.30;;;;;;;14.05;62.46;99597.25;4895808;29;20473;-89
2022/05/31 00:47:54;;;;;;;0.30;0.30;;;;;;;13.94;63.11;99579.19;4864681;29;20077;-88
2022/05/31 00:50:29;;;;;;;0.30;0.30;;;;;;;13.92;63.71;99582.16;4895377;29;20124;-89
2022/05/31 00:52:59;;;;;;;0.30;0.30;;;;;;;13.90;63.52;99587.03;4897264;29;20151;-88
2022/05/31 00:55:33;;;;;;;0.30;0.30;;;;;;;13.86;64.34;99589.41;4904346;29;20056;-88
2022/05/31 00:58:11;;;;;;;0.30;0.30;;;;;;;13.84;64.50;99594.28;4862741;29;20056;-88
2022/05/31 01:00:39;;;;;;;0.30;0.30;;;;;;;13.76;65.49;99578.44;4908251;29;20052;-88
2022/05/31 01:03:09;;;;;;;0.30;0.30;;;;;;;13.66;65.29;99578.31;4896162;29;20052;-88
2022/05/31 01:05:36;;;;;;;0.30;0.30;;;;;;;13.62;65.77;99577.16;4895405;29;20108;-88
2022/05/31 01:08:04;;;;;;;0.30;0.30;;;;;;;13.68;65.76;99591.63;4895478;29;20539;-89
2022/05/31 01:10:44;;;;;;;0.30;0.30;;;;;;;13.59;66.41;99583.91;4880436;29;20500;-89
2022/05/31 01:13:34;;;;;;;0.30;0.30;;;;;;;13.69;66.19;99596.78;4882361;29;20509;-88
2022/05/31 01:16:12;;;;;;;0.30;0.30;;;;;;;13.68;66.45;99605.19;4880115;29;20077;-88
2022/05/31 01:19:03;;;;;;;0.30;0.30;;;;;;;13.60;66.55;99590.16;4826984;29;20050;-88
2022/05/31 01:21:54;;;;;;;0.30;0.30;;;;;;;13.62;67.48;99613.25;4831673;29;20576;-89
2022/05/31 01:24:53;;;;;;;0.30;0.30;;;;;;;13.54;68.54;99597.38;4838465;29;20062;-89
2022/05/31 01:27:53;;;;;;;0.30;0.30;;;;;;;13.42;68.60;99597.50;4823539;29;20093;-89
2022/05/31 01:30:21;;;;;;;0.30;0.30;;;;;;;13.48;68.71;99611.94;4822970;29;20091;-88
2022/05/31 01:32:55;;;;;;;0.30;0.30;;;;;;;13.40;68.43;99582.56;4823483;29;20058;-88
2022/05/31 01:35:31;;;;;;;0.30;0.30;;;;;;;13.54;68.56;99607.41;4822968;29;20670;-90
2022/05/31 01:38:09;;;;;;;0.30;0.30;;;;;;;13.53;68.28;99605.78;4838346;29;20069;-88
2022/05/31 01:40:49;;;;;;;0.30;0.30;;;;;;;13.46;68.05;99597.00;4823340;29;20522;-88
2022/05/31 01:43:16;;;;;;;0.30;0.30;;;;;;;13.55;67.08;99603.66;4838011;29;20088;-90
2022/05/31 01:45:49;;;;;;;0.40;0.40;;;;;;;13.58;66.92;99617.53;4838558;29;20068;-90
2022/05/31 01:48:17;;;;;;;0.30;0.30;;;;;;;13.57;67.06;99613.19;4837897;29;20460;-88
2022/05/31 01:50:45;;;;;;;0.40;0.40;;;;;;;13.53;67.38;99608.50;4838059;29;20062;-89
2022/05/31 01:53:13;;;;;;;0.30;0.30;;;;;;;13.49;66.94;99601.91;4838298;29;20114;-89
2022/05/31 01:55:43;;;;;;;0.30;0.30;;;;;;;13.37;67.70;99597.44;4834815;29;20458;-88
2022/05/31 01:58:17;;;;;;;0.30;0.30;;;;;;;13.52;67.12;99602.25;4876421;29;20053;-88
2022/05/31 02:00:45;;;;;;;0.38;0.38;;;;;;;13.45;67.47;99598.91;4861093;29;20052;-88
2022/05/31 02:03:16;;;;;;;0.30;0.30;;;;;;;13.49;67.63;99602.72;4877276;29;20064;-89
2022/05/31 02:05:48;;;;;;;0.30;0.30;;;;;;;13.47;67.95;99612.19;4861041;29;20131;-87
2022/05/31 02:08:22;;;;;;;0.30;0.30;;;;;;;13.39;68.59;99608.84;4878838;29;20101;-88
2022/05/31 02:10:49;;;;;;;0.30;0.30;;;;;;;13.34;68.67;99616.91;4865214;29;20049;-86
2022/05/31 02:13:18;;;;;;;0.40;0.40;;;;;;;13.32;69.65;99620.91;4864729;29;20049;-86
2022/05/31 02:15:50;;;;;;;0.30;0.30;;;;;;;13.22;69.39;99605.28;4879674;29;20135;-88
2022/05/31 02:21:41;;;;;;;0.40;0.40;;;;;;;13.15;69.97;99620.91;4880454;29;20143;-88
2022/05/31 02:24:13;;;;;;;0.40;0.40;;;;;;;13.10;70.64;99623.53;4879656;29;20072;-88
2022/05/31 02:26:42;;;;;;;0.40;0.40;;;;;;;13.08;70.58;99614.81;4880173;29;20052;-88
2022/05/31 02:29:11;;;;;;;0.40;0.40;;;;;;;13.07;71.24;99614.00;4881379;29;20567;-88
2022/05/31 02:31:39;;;;;;;0.40;0.40;;;;;;;12.97;71.28;99624.66;4894421;29;20060;-88
2022/05/31 02:34:08;;;;;;;0.40;0.40;;;;;;;12.95;71.64;99626.78;4901109;29;20121;-88
2022/05/31 02:36:35;;;;;;;0.30;0.30;;;;;;;12.86;72.05;99612.00;4887709;29;20057;-89
2022/05/31 02:39:03;;;;;;;0.40;0.40;;;;;;;12.91;72.01;99631.91;4881612;29;20458;-89
2022/05/31 02:41:37;;;;;;;0.30;0.30;;;;;;;12.93;72.34;99628.91;4879230;29;20179;-88
2022/05/31 02:44:05;;;;;;;0.40;0.40;;;;;;;12.84;72.81;99622.25;4880618;29;20144;-89
2022/05/31 02:46:33;;;;;;;0.30;0.30;;;;;;;12.89;72.96;99636.72;4879087;29;20053;-89
2022/05/31 02:49:04;;;;;;;0.40;0.40;;;;;;;12.73;73.42;99613.94;4848581;29;20065;-89
2022/05/31 02:51:36;;;;;;;0.38;0.38;;;;;;;12.73;73.49;99623.97;4879888;29;20053;-88
2022/05/31 02:54:05;;;;;;;0.40;0.40;;;;;;;12.78;73.52;99632.19;4863459;29;20416;-90
2022/05/31 02:56:51;;;;;;;0.30;0.30;;;;;;;12.75;73.69;99627.25;4880266;29;20072;-89
2022/05/31 02:59:30;;;;;;;0.40;0.40;;;;;;;12.75;73.84;99638.09;4864884;29;20060;-88
2022/05/31 03:02:37;;;;;;;0.40;0.40;;;;;;;12.72;74.44;99638.59;4850399;29;20079;-89
2022/05/31 03:05:29;;;;;;;0.40;0.40;;;;;;;12.72;74.27;99638.59;4861158;29;20054;-89
2022/05/31 03:08:25;;;;;;;0.40;0.40;;;;;;;12.67;74.68;99647.44;4852465;29;20057;-89
2022/05/31 03:11:16;;;;;;;0.40;0.40;;;;;;;12.68;74.74;99645.53;4860316;29;20068;-87
2022/05/31 03:13:46;;;;;;;0.30;0.30;;;;;;;12.65;74.68;99640.63;4875331;29;20065;-86
2022/05/31 03:16:14;;;;;;;0.40;0.40;;;;;;;12.64;75.20;99642.50;4870226;29;20480;-88
2022/05/31 03:18:52;;;;;;;0.40;0.40;;;;;;;12.57;75.86;99631.81;4879082;29;20076;-88
2022/05/31 03:21:24;;;;;;;0.40;0.40;;;;;;;12.58;75.83;99638.03;4879824;29;20436;-88
2022/05/31 03:24:02;;;;;;;0.40;0.40;;;;;;;12.58;75.99;99638.03;4863269;29;20053;-88
2022/05/31 03:26:32;;;;;;;0.40;0.40;;;;;;;12.58;75.93;99644.31;4878881;29;20105;-87
2022/05/31 03:29:03;;;;;;;0.40;0.40;;;;;;;12.62;76.26;99643.81;4858702;29;20157;-89
2022/05/31 03:31:30;;;;;;;0.40;0.40;;;;;;;12.54;76.49;99631.50;4862442;29;20049;-91
2022/05/31 03:33:58;;;;;;;0.40;0.40;;;;;;;12.55;76.49;99631.22;4878283;29;20053;-92
2022/05/31 03:36:25;;;;;;;0.40;0.40;;;;;;;12.63;76.33;99640.03;4879251;29;20059;-89
2022/05/31 03:39:02;;;;;;;0.40;0.40;;;;;;;12.66;76.21;99639.53;4878609;29;20053;-90
2022/05/31 03:41:34;;;;;;;0.40;0.40;;;;;;;12.66;76.23;99647.66;4863137;29;20077;-93
2022/05/31 03:44:04;;;;;;;0.40;0.40;;;;;;;12.66;75.39;99629.56;4879126;29;20061;-94
2022/05/31 03:46:54;;;;;;;0.50;0.50;;;;;;;12.71;75.29;99650.47;4831909;29;20057;-89
2022/05/31 03:49:34;;;;;;;0.40;0.40;;;;;;;12.79;75.07;99640.06;4820482;29;20058;-92
2022/05/31 03:52:05;;;;;;;0.40;0.40;;;;;;;12.88;75.07;99645.09;4826946;29;20459;-88
2022/05/31 03:54:52;;;;;;;0.40;0.40;;;;;;;12.87;75.30;99633.44;4804615;29;20059;-87
2022/05/31 03:57:42;;;;;;;0.40;0.40;;;;;;;12.96;75.23;99636.56;4805619;29;20082;-87
2022/05/31 04:00:24;;;;;;;0.40;0.40;;;;;;;13.01;75.36;99640.19;4810580;29;20140;-88
2022/05/31 04:03:07;;;;;;;0.40;0.40;;;;;;;12.88;75.65;99637.78;4465215;29;10000140;-86
2022/05/31 04:05:35;;;;;;;0.40;0.40;;;;;;;12.84;76.07;99635.78;4805303;29;20166;-86
2022/05/31 04:08:06;;;;;;;0.40;0.40;;;;;;;12.88;76.35;99640.47;4802598;29;20077;-87
2022/05/31 04:10:35;;;;;;;0.40;0.40;;;;;;;12.79;76.19;99640.06;4817967;29;20898;-89
2022/05/31 04:13:02;;;;;;;0.40;0.40;;;;;;;12.80;76.29;99643.59;4817516;29;20099;-91
2022/05/31 04:15:49;;;;;;;0.40;0.40;;;;;;;12.78;76.57;99643.00;4819081;29;20533;-89
2022/05/31 04:18:16;;;;;;;0.40;0.40;;;;;;;12.67;76.58;99635.78;4817162;29;20058;-89
2022/05/31 04:20:44;;;;;;;0.40;0.40;;;;;;;12.55;77.51;99617.69;4802217;29;20429;-87
2022/05/31 04:26:16;;;;;;;0.40;0.40;;;;;;;12.56;78.04;99632.88;4872237;29;20564;-84
2022/05/31 04:29:03;;;;;;;0.40;0.40;;;;;;;12.60;77.85;99637.81;4877883;29;20152;-85
2022/05/31 04:31:56;;;;;;;0.40;0.40;;;;;;;12.58;77.86;99636.19;4855696;29;20060;-85
2022/05/31 04:34:45;;;;;;;0.40;0.40;;;;;;;12.65;77.65;99635.19;4876406;29;20116;-86
2022/05/31 04:37:13;;;;;;;0.40;0.40;;;;;;;12.65;77.99;99637.91;4890726;29;20139;-86
2022/05/31 04:39:52;;;;;;;0.40;0.40;;;;;;;12.66;77.92;99637.69;4877631;29;20057;-86
2022/05/31 04:42:41;;;;;;;0.40;0.40;;;;;;;12.69;77.86;99622.81;4879977;29;20075;-86
2022/05/31 04:45:33;;;;;;;0.40;0.40;;;;;;;12.77;77.97;99635.97;4877880;29;20041;-86
2022/05/31 04:48:27;;;;;;;0.45;0.45;;;;;;;12.80;78.30;99638.19;4870302;29;20057;-86
2022/05/31 04:50:55;;;;;;;0.40;0.40;;;;;;;12.77;78.54;99631.38;4860738;29;20053;-85
2022/05/31 04:53:26;;;;;;;0.40;0.40;;;;;;;12.82;78.63;99630.63;4876638;29;20077;-86
2022/05/31 04:56:19;;;;;;;0.40;0.40;;;;;;;12.85;78.52;99637.47;4876141;29;20181;-85
2022/05/31 04:58:52;;;;;;;0.40;0.40;;;;;;;12.87;78.66;99630.72;4870385;29;20145;-85
2022/05/31 05:01:20;;;;;;;0.40;0.40;;;;;;;12.91;78.33;99633.75;4875692;29;20056;-87
2022/05/31 05:03:52;;;;;;;0.40;0.40;;;;;;;13.09;78.33;99640.84;4876702;29;20124;-90
2022/05/31 05:06:21;;;;;;;0.40;0.40;;;;;;;13.17;78.23;99641.25;4876387;29;20049;-90
2022/05/31 05:09:25;;;;;;;0.40;0.40;;;;;;;13.25;77.58;99637.31;4860251;29;20168;-88
2022/05/31 05:12:13;;;;;;;0.40;0.40;;;;;;;13.23;77.55;99621.28;4866690;29;20061;-86
2022/05/31 05:14:45;;;;;;;0.40;0.40;;;;;;;13.37;77.06;99638.09;4892166;29;20052;-88
2022/05/31 05:17:15;;;;;;;0.40;0.40;;;;;;;13.37;76.81;99629.16;4892968;29;20089;-85
2022/05/31 05:19:46;;;;;;;0.45;0.45;;;;;;;13.43;76.76;99626.25;4858905;29;20440;-88
2022/05/31 05:22:13;;;;;;;0.40;0.40;;;;;;;13.43;76.78;99620.00;4873334;29;20053;-86
2022/05/31 05:24:41;;;;;;;0.40;0.40;;;;;;;13.57;76.64;99620.47;4873077;29;20856;-86
2022/05/31 05:27:29;;;;;;;0.40;0.40;;;;;;;13.63;76.27;99614.88;4855692;29;20061;-88
2022/05/31 05:33:31;;;;;;;0.40;0.40;;;;;;;13.72;76.16;99625.28;4844536;29;20061;-86
2022/05/31 05:36:22;;;;;;;0.40;0.40;;;;;;;13.71;75.90;99619.06;4832863;29;20465;-86
2022/05/31 05:38:56;;;;;;;0.40;0.40;;;;;;;13.73;76.06;99616.91;4807606;29;20553;-87
2022/05/31 05:41:32;;;;;;;0.35;0.35;;;;;;;13.71;76.26;99621.78;4817433;29;20577;-87
2022/05/31 05:44:18;;;;;;;0.40;0.40;;;;;;;13.64;76.18;99615.69;4821459;29;20482;-87
2022/05/31 05:46:45;;;;;;;0.40;0.40;;;;;;;13.58;76.47;99624.84;4838202;29;20062;-86
2022/05/31 05:49:13;;;;;;;0.30;0.30;;;;;;;13.48;76.80;99619.28;4823463;29;20066;-89
2022/05/31 05:51:40;;;;;;;0.40;0.40;;;;;;;13.31;77.16;99597.59;4806527;29;20088;-87
2022/05/31 05:54:26;;;;;;;0.38;0.38;;;;;;;13.42;77.38;99605.63;4837571;29;20559;-86
2022/05/31 05:57:17;;;;;;;0.40;0.40;;;;;;;13.40;77.86;99610.47;4803503;29;20074;-87
2022/05/31 06:00:03;;;;;;;0.40;0.40;;;;;;;13.33;78.30;99598.97;4790827;29;20058;-86
2022/05/31 06:03:01;;;;;;;0.40;0.40;;;;;;;13.34;78.14;99591.66;4807193;29;20054;-86
2022/05/31 06:05:58;;;;;;;0.40;0.40;;;;;;;13.33;78.50;99604.41;4792935;29;20480;-85
2022/05/31 06:08:34;;;;;;;0.40;0.40;;;;;;;13.25;78.96;99609.41;4796260;29;20054;-86
2022/05/31 06:11:13;;;;;;;0.40;0.40;;;;;;;13.26;79.27;99609.13;4807669;29;20062;-85
2022/05/31 06:13:49;;;;;;;0.40;0.40;;;;;;;13.29;79.48;99615.97;4809947;29;20068;-86
2022/05/31 06:16:18;;;;;;;0.40;0.40;;;;;;;13.14;79.13;99603.81;4822894;29;20049;-86
2022/05/31 06:18:52;;;;;;;0.40;0.40;;;;;;;13.22;79.54;99613.44;4818939;29;20084;-87
2022/05/31 06:21:21;;;;;;;0.40;0.40;;;;;;;13.26;79.81;99611.03;4823156;29;20100;-86
2022/05/31 06:23:50;;;;;;;0.40;0.40;;;;;;;13.31;79.16;99620.09;4816618;29;20077;-87
2022/05/31 06:26:18;;;;;;;0.40;0.40;;;;;;;13.30;79.17;99593.25;4838234;29;20065;-87
2022/05/31 06:28:55;;;;;;;0.40;0.40;;;;;;;13.29;79.15;99578.03;4821266;29;20142;-86
2022/05/31 06:31:22;;;;;;;0.40;0.40;;;;;;;13.50;79.04;99600.88;4822492;29;20053;-87
2022/05/31 06:33:50;;;;;;;0.40;0.40;;;;;;;13.53;79.02;99595.75;4834243;29;20493;-86
2022/05/31 06:36:21;;;;;;;0.40;0.40;;;;;;;13.64;78.79;99605.66;4876145;29;20049;-86
2022/05/31 06:38:48;;;;;;;0.40;0.40;;;;;;;13.76;78.37;99611.00;4875599;29;20049;-87
2022/05/31 06:41:15;;;;;;;0.40;0.40;;;;;;;13.67;78.19;99596.19;4883337;29;20041;-88
2022/05/31 06:44:01;;;;;;;0.40;0.40;;;;;;;13.73;78.40;99608.78;4869905;29;20053;-88
2022/05/31 06:46:47;;;;;;;0.40;0.40;;;;;;;13.70;77.96;99609.28;4875586;29;20101;-87
2022/05/31 06:49:34;;;;;;;0.40;0.40;;;;;;;13.65;77.98;99593.75;4873875;29;20057;-88
2022/05/31 06:58:30;;;;;;;0.40;0.40;;;;;;;13.77;77.10;99571.13;4867639;29;20061;-88
2022/05/31 07:01:05;;;;;;;0.32;0.32;;;;;;;14.00;77.17;99578.19;4858333;29;20124;-88
2022/05/31 07:03:33;;;;;;;0.40;0.40;;;;;;;14.22;76.82;99603.41;4858439;29;20060;-87
2022/05/31 07:06:01;;;;;;;0.40;0.40;;;;;;;14.30;76.46;99594.84;4858800;29;20421;-88
2022/05/31 07:08:28;;;;;;;0.40;0.40;;;;;;;14.28;75.57;99583.41;4858366;29;20072;-86
2022/05/31 07:11:18;;;;;;;0.40;0.40;;;;;;;14.52;75.20;99591.25;4847897;29;20098;-89
2022/05/31 07:14:04;;;;;;;0.40;0.40;;;;;;;14.63;74.92;99590.31;4844575;29;20058;-89
2022/05/31 07:16:46;;;;;;;0.43;0.43;;;;;;;14.76;74.11;99585.53;4839128;29;20069;-88
2022/05/31 07:19:16;;;;;;;0.47;0.47;;;;;;;14.91;74.18;99593.81;4841197;29;20054;-88
2022/05/31 07:21:48;;;;;;;0.40;0.40;;;;;;;15.07;73.17;99592.88;4825561;29;20066;-89
2022/05/31 07:24:16;;;;;;;0.50;0.50;;;;;;;15.11;72.92;99590.44;4825571;29;20820;-89
2022/05/31 07:27:15;;;;;;;0.50;0.50;;;;;;;15.28;72.55;99590.31;4841101;29;20150;-89
2022/05/31 07:29:43;;;;;;;0.50;0.50;;;;;;;15.36;71.19;99587.91;4825225;29;20511;-89
2022/05/31 07:32:10;;;;;;;0.50;0.50;;;;;;;15.69;70.96;99593.28;4809699;29;20046;-88
2022/05/31 07:34:57;;;;;;;0.45;0.45;;;;;;;15.73;71.19;99597.16;4805785;29;20527;-88
2022/05/31 07:37:29;;;;;;;0.40;0.40;;;;;;;15.71;70.90;99589.25;4821984;29;20153;-89
2022/05/31 07:39:56;;;;;;;0.40;0.40;;;;;;;15.71;70.84;99594.69;4807184;29;20077;-88
2022/05/31 07:42:23;;;;;;;0.40;0.40;;;;;;;15.58;71.02;99579.63;4781479;29;20471;-89
2022/05/31 07:44:54;;;;;;;0.40;0.40;;;;;;;15.58;70.24;99585.06;4828928;29;20531;-88
2022/05/31 07:47:22;;;;;;;0.40;0.40;;;;;;;15.55;70.49;99592.94;4834996;29;20054;-88
2022/05/31 07:49:50;;;;;;;0.40;0.40;;;;;;;15.35;71.15;99593.63;4861158;29;20061;-87
2022/05/31 07:52:40;;;;;;;0.40;0.40;;;;;;;15.24;72.05;99589.19;4860269;29;20062;-87
2022/05/31 07:55:27;;;;;;;0.40;0.40;;;;;;;15.26;72.09;99592.47;4860410;29;20076;-88
2022/05/31 07:58:31;;;;;;;0.40;0.40;;;;;;;15.34;71.31;99594.69;4860155;29;20060;-87
2022/05/31 08:01:22;;;;;;;0.40;0.40;;;;;;;15.50;71.17;99593.72;4846579;29;20496;-88
2022/05/31 08:03:51;;;;;;;0.40;0.40;;;;;;;15.63;70.99;99586.19;4874602;29;20050;-87
2022/05/31 08:06:30;;;;;;;0.40;0.40;;;;;;;15.68;70.46;99581.59;4860965;29;20093;-88
2022/05/31 08:08:57;;;;;;;0.30;0.30;;;;;;;15.67;70.55;99584.56;4860550;29;20076;-88
2022/05/31 08:11:27;;;;;;;0.40;0.40;;;;;;;15.60;70.87;99584.81;4860149;29;20053;-88
2022/05/31 08:13:55;;;;;;;0.38;0.38;;;;;;;15.55;70.48;99580.16;4860799;29;20057;-88
2022/05/31 08:16:24;;;;;;;0.40;0.40;;;;;;;15.52;71.33;99583.41;4860355;29;20098;-88
2022/05/31 08:18:53;;;;;;;0.30;0.30;;;;;;;15.51;71.25;99584.47;4859812;29;20045;-88
2022/05/31 08:21:27;;;;;;;0.30;0.30;;;;;;;15.64;70.92;99585.09;4860179;29;20114;-88
2022/05/31 08:24:01;;;;;;;0.40;0.40;;;;;;;15.69;70.69;99590.56;4858612;29;20049;-87
2022/05/31 08:26:46;;;;;;;0.40;0.40;;;;;;;15.62;71.14;99579.91;4859851;29;20540;-88
2022/05/31 08:29:13;;;;;;;0.40;0.40;;;;;;;15.60;71.18;99561.16;4858523;29;20056;-89
2022/05/31 08:31:40;;;;;;;0.40;0.40;;;;;;;15.68;70.68;99578.88;4859264;29;20462;-88
2022/05/31 08:34:08;;;;;;;0.40;0.40;;;;;;;15.76;70.63;99585.75;4859816;29;20091;-86
2022/05/31 08:36:35;;;;;;;0.40;0.40;;;;;;;15.74;70.27;99568.84;4859802;29;20101;-88
2022/05/31 08:39:03;;;;;;;0.40;0.40;;;;;;;15.90;70.83;99581.47;4860941;29;20088;-89
2022/05/31 08:41:32;;;;;;;0.40;0.40;;;;;;;16.00;70.16;99583.38;4859949;29;20079;-88
2022/05/31 08:44:21;;;;;;;0.40;0.40;;;;;;;16.18;69.95;99574.75;4859637;29;20053;-89
2022/05/31 08:47:13;;;;;;;0.40;0.40;;;;;;;16.30;69.74;99582.69;4860113;29;20057;-88
2022/05/31 08:52:53;;;;;;;0.40;0.40;;;;;;;16.24;69.97;99581.84;4859589;29;20050;-88
2022/05/31 08:58:19;;;;;;;0.35;0.35;;;;;;;16.17;70.89;99575.03;4859645;29;20168;-88
2022/05/31 09:00:48;;;;;;;0.30;0.30;;;;;;;16.26;70.23;99576.16;4858586;29;20094;-89
2022/05/31 09:03:28;;;;;;;0.40;0.40;;;;;;;16.42;70.33;99591.44;4874000;29;20098;-89
2022/05/31 09:06:05;;;;;;;0.38;0.38;;;;;;;16.43;69.06;99579.47;4859745;29;20061;-89
2022/05/31 09:08:32;;;;;;;0.40;0.40;;;;;;;16.46;69.03;99580.84;4859406;29;20110;-89
2022/05/31 09:11:11;;;;;;;0.40;0.40;;;;;;;16.58;69.26;99581.38;4860606;29;20417;-88
2022/05/31 09:13:43;;;;;;;0.40;0.40;;;;;;;16.61;69.31;99583.59;4860015;29;20057;-89
2022/05/31 09:16:18;;;;;;;0.40;0.40;;;;;;;16.55;68.71;99584.66;4858177;29;20064;-89
2022/05/31 09:18:57;;;;;;;0.38;0.38;;;;;;;16.49;69.22;99582.19;4858119;29;20506;-89
2022/05/31 09:21:26;;;;;;;0.40;0.40;;;;;;;16.51;69.82;99585.44;4842823;29;20073;-88
2022/05/31 09:23:55;;;;;;;0.40;0.40;;;;;;;16.38;70.02;99567.72;4873592;29;20053;-88
2022/05/31 09:26:44;;;;;;;0.30;0.30;;;;;;;16.33;70.72;99578.59;4859660;29;20053;-87
2022/05/31 09:29:18;;;;;;;0.30;0.30;;;;;;;16.24;70.85;99586.47;4859392;29;20136;-88
2022/05/31 09:32:00;;;;;;;0.30;0.30;;;;;;;16.22;70.35;99585.94;4859263;29;20071;-89
2022/05/31 09:34:46;;;;;;;0.40;0.40;;;;;;;16.20;70.19;99588.09;4859128;29;20050;-88
2022/05/31 09:37:52;;;;;;;0.30;0.30;;;;;;;16.26;70.13;99589.75;4863472;29;20140;-88
2022/05/31 09:40:38;;;;;;;0.40;0.40;;;;;;;16.26;70.12;99589.75;4861606;29;20057;-87
2022/05/31 09:43:26;;;;;;;0.30;0.30;;;;;;;16.32;70.02;99596.84;4859761;29;20080;-87
2022/05/31 09:45:58;;;;;;;0.30;0.30;;;;;;;16.31;69.96;99587.06;4859022;29;20064;-88
2022/05/31 09:48:25;;;;;;;0.30;0.30;;;;;;;16.24;69.95;99578.31;4857900;29;20095;-87
2022/05/31 09:51:00;;;;;;;0.30;0.30;;;;;;;16.30;69.79;99590.03;4828168;29;20079;-87
2022/05/31 09:59:47;;;;;;;0.30;0.30;;;;;;;16.20;69.06;99583.50;4858973;29;19992;-88
2022/05/31 10:02:36;;;;;;;0.40;0.40;;;;;;;16.29;69.55;99591.94;4856776;29;20141;-87
2022/05/31 10:05:21;;;;;;;0.40;0.40;;;;;;;16.31;69.58;99583.53;4859675;29;20061;-88
2022/05/31 10:07:49;;;;;;;0.40;0.40;;;;;;;16.20;69.39;99579.91;4859573;29;20204;-88
2022/05/31 10:10:33;;;;;;;0.30;0.30;;;;;;;16.03;70.31;99572.00;4842635;29;20049;-88
2022/05/31 10:13:04;;;;;;;0.30;0.30;;;;;;;15.98;70.51;99577.41;4857916;29;20084;-88
2022/05/31 10:15:44;;;;;;;0.30;0.30;;;;;;;15.97;70.85;99578.47;4858764;29;20050;-88
2022/05/31 10:18:14;;;;;;;0.30;0.30;;;;;;;15.78;71.54;99575.41;4883897;29;20056;-89
2022/05/31 10:20:53;;;;;;;0.30;0.30;;;;;;;15.59;72.37;99572.28;4876667;29;20045;-89
2022/05/31 10:23:22;;;;;;;0.30;0.30;;;;;;;15.56;72.85;99578.25;4879480;29;20053;-89
2022/05/31 10:26:23;;;;;;;0.30;0.30;;;;;;;15.52;73.24;99571.69;4890912;29;20113;-87
2022/05/31 10:29:27;;;;;;;0.30;0.30;;;;;;;15.61;73.11;99584.53;4883262;29;20061;-88
2022/05/31 10:32:25;;;;;;;;;;;;;;;15.68;72.98;99578.06;4884543;29;20057;-88
2022/05/31 10:35:21;;;;;;;0.35;0.35;;;;;;;15.67;73.26;99579.13;4881211;29;19928;-88
2022/05/31 10:37:57;;;;;;;0.40;0.40;;;;;;;15.73;73.04;99589.81;4880670;29;20075;-88
2022/05/31 10:40:27;;;;;;;0.40;0.40;;;;;;;15.76;73.04;99588.47;4863142;29;20466;-88
2022/05/31 10:43:02;;;;;;;0.30;0.30;;;;;;;15.73;73.02;99583.56;4892969;29;20075;-88
2022/05/31 10:45:31;;;;;;;0.30;0.30;;;;;;;15.72;73.48;99590.06;4878744;29;20109;-88
2022/05/31 10:48:00;;;;;;;0.30;0.30;;;;;;;15.65;73.57;99590.28;4849462;29;20101;-88
2022/05/31 10:50:47;;;;;;;0.40;0.40;;;;;;;15.74;73.62;99593.34;4879024;29;20160;-89
2022/05/31 10:53:21;;;;;;;0.38;0.38;;;;;;;15.82;73.78;99601.00;4879489;29;20053;-88
2022/05/31 10:56:23;;;;;;;0.38;0.38;;;;;;;15.89;73.67;99601.59;4879016;29;20508;-87
2022/05/31 10:58:54;;;;;;;0.30;0.30;;;;;;;15.94;73.26;99607.06;4807233;29;20141;-87
2022/05/31 11:01:31;;;;;;;0.40;0.40;;;;;;;16.15;73.26;99596.25;4807892;29;20061;-87
2022/05/31 11:04:17;;;;;;;0.30;0.30;;;;;;;16.19;73.49;99592.72;4805901;29;20572;-87
2022/05/31 11:06:47;;;;;;;0.38;0.38;;;;;;;16.36;72.99;99603.41;4815866;29;20059;-87
2022/05/31 11:12:24;;;;;;;0.30;0.30;;;;;;;16.60;72.42;99600.19;4813064;29;20534;-88
2022/05/31 11:15:01;;;;;;;0.30;0.30;;;;;;;16.63;71.53;99607.81;4807265;29;20058;-87
2022/05/31 11:17:41;;;;;;;0.40;0.40;;;;;;;16.57;71.62;99603.47;4820969;29;20066;-88
2022/05/31 11:20:30;;;;;;;0.30;0.30;;;;;;;16.55;71.97;99606.44;4806789;29;20054;-87
2022/05/31 11:23:04;;;;;;;0.40;0.40;;;;;;;16.65;71.72;99614.63;4819338;29;20050;-88
2022/05/31 11:25:52;;;;;;;0.38;0.38;;;;;;;16.68;71.72;99616.00;4819710;29;20500;-87
2022/05/31 11:29:06;;;;;;;0.40;0.40;;;;;;;16.57;71.86;99614.34;4796547;29;20085;-86
2022/05/31 11:31:56;;;;;;;0.30;0.30;;;;;;;16.64;72.39;99625.81;4813591;29;20063;-86
2022/05/31 11:34:56;;;;;;;0.30;0.30;;;;;;;16.80;71.99;99616.59;4812600;29;20117;-87
2022/05/31 11:37:32;;;;;;;0.40;0.40;;;;;;;16.87;71.74;99608.97;4859860;29;20136;-87
2022/05/31 11:40:01;;;;;;;0.38;0.38;;;;;;;17.00;70.88;99609.53;4874706;29;20141;-87
2022/05/31 11:43:06;;;;;;;0.40;0.40;;;;;;;17.05;71.15;99615.00;4865416;29;20056;-87
2022/05/31 11:45:36;;;;;;;0.30;0.30;;;;;;;17.10;71.89;99620.44;4860418;29;20085;-87
2022/05/31 11:48:13;;;;;;;0.40;0.40;;;;;;;17.02;71.59;99619.09;4860741;29;20136;-86
2022/05/31 11:51:01;;;;;;;0.32;0.32;;;;;;;16.95;72.11;99615.00;4875356;29;20069;-88
2022/05/31 11:53:31;;;;;;;0.30;0.30;;;;;;;17.07;72.15;99623.72;4875005;29;20049;-89
2022/05/31 11:56:07;;;;;;;0.30;0.30;;;;;;;16.98;72.60;99606.25;4873933;29;20505;-86
2022/05/31 11:58:47;;;;;;;0.30;0.30;;;;;;;16.95;72.50;99626.72;4864434;29;20060;-88
2022/05/31 12:01:29;;;;;;;0.40;0.40;;;;;;;16.96;73.34;99635.69;4875623;29;20101;-87
2022/05/31 12:04:00;;;;;;;0.40;0.40;;;;;;;17.01;73.02;99630.25;4864121;29;20054;-89
2022/05/31 12:06:39;;;;;;;0.30;0.30;;;;;;;16.97;72.74;99634.63;4875490;29;20057;-87
2022/05/31 12:09:16;;;;;;;0.40;0.40;;;;;;;16.89;72.45;99625.91;4878670;29;20053;-85
2022/05/31 12:11:52;;;;;;;0.30;0.30;;;;;;;16.84;72.54;99616.91;4862026;29;20525;-86
2022/05/31 12:14:22;;;;;;;0.30;0.30;;;;;;;16.88;72.86;99637.06;4877636;29;20116;-85
2022/05/31 12:16:50;;;;;;;0.30;0.30;;;;;;;16.88;73.32;99624.25;4878795;29;20151;-86
2022/05/31 12:19:54;;;;;;;0.30;0.30;;;;;;;16.73;73.85;99615.19;4879165;29;20114;-87
2022/05/31 12:22:29;;;;;;;0.30;0.30;;;;;;;16.68;74.07;99616.00;4812215;29;20150;-86
2022/05/31 12:25:07;;;;;;;0.30;0.30;;;;;;;16.50;75.45;99613.78;4802735;29;20050;-86
2022/05/31 12:27:42;;;;;;;0.30;0.30;;;;;;;16.42;76.09;99601.50;4809597;29;20058;-84
2022/05/31 12:30:21;;;;;;;0.40;0.40;;;;;;;16.52;76.08;99609.72;4812796;29;20103;-85
2022/05/31 12:32:53;;;;;;;0.30;0.30;;;;;;;16.49;75.81;99588.47;4805997;29;20058;-86
2022/05/31 12:35:32;;;;;;;0.40;0.40;;;;;;;16.79;75.73;99606.81;4820991;29;20131;-84
2022/05/31 12:38:02;;;;;;;0.30;0.30;;;;;;;16.85;75.79;99605.69;4806182;29;20066;-88
2022/05/31 12:40:35;;;;;;;0.30;0.30;;;;;;;16.94;75.25;99607.88;4820700;29;20054;-87
2022/05/31 12:43:14;;;;;;;0.30;0.30;;;;;;;16.92;75.24;99600.00;4821025;29;20085;-88
2022/05/31 12:45:44;;;;;;;0.30;0.30;;;;;;;16.82;75.31;99608.16;4805747;29;20069;-87
2022/05/31 12:48:14;;;;;;;0.30;0.30;;;;;;;16.74;75.11;99600.50;4820974;29;20084;-85